sensor_id;sensor_type;location;lat;lon;timestamp;temperature;humidity
61641;HTU21D;62201;49.966;8.342;2023-12-07T00:00:16;1.99;112.97
61641;HTU21D;62201;49.966;8.342;2023-12-07T00:02:42;1.85;113.45
61641;HTU21D;62201;49.966;8.342;2023-12-07T00:05:07;1.67;114.85
61641;HTU21D;62201;49.966;8.342;2023-12-07T00:07:33;1.69;115.85
61641;HTU21D;62201;49.966;8.342;2023-12-07T00:09:58;1.54;116.86
61641;HTU21D;62201;49.966;8.342;2023-12-07T00:12:24;1.50;117.42
61641;HTU21D;62201;49.966;8.342;2023-12-07T00:14:49;1.42;118.90
61641;HTU21D;62201;49.966;8.342;2023-12-07T00:17:14;1.36;118.99
61641;HTU21D;62201;49.966;8.342;2023-12-07T00:19:40;1.37;118.99
61641;HTU21D;62201;49.966;8.342;2023-12-07T00:22:05;1.41;118.99
61641;HTU21D;62201;49.966;8.342;2023-12-07T00:24:31;1.53;118.99
61641;HTU21D;62201;49.966;8.342;2023-12-07T00:26:56;1.61;118.99
61641;HTU21D;62201;49.966;8.342;2023-12-07T00:29:21;1.54;118.99
61641;HTU21D;62201;49.966;8.342;2023-12-07T00:31:47;1.65;118.95
61641;HTU21D;62201;49.966;8.342;2023-12-07T00:34:12;1.81;116.96
61641;HTU21D;62201;49.966;8.342;2023-12-07T00:36:38;1.70;116.57
61641;HTU21D;62201;49.966;8.342;2023-12-07T00:39:06;1.66;117.29
61641;HTU21D;62201;49.966;8.342;2023-12-07T00:41:31;1.63;118.06
61641;HTU21D;62201;49.966;8.342;2023-12-07T00:43:57;1.39;118.76
61641;HTU21D;62201;49.966;8.342;2023-12-07T00:46:22;1.33;118.99
61641;HTU21D;62201;49.966;8.342;2023-12-07T00:48:50;1.52;118.99
61641;HTU21D;62201;49.966;8.342;2023-12-07T00:51:16;1.61;118.68
61641;HTU21D;62201;49.966;8.342;2023-12-07T00:53:41;1.56;118.60
61641;HTU21D;62201;49.966;8.342;2023-12-07T00:56:07;1.45;118.99
61641;HTU21D;62201;49.966;8.342;2023-12-07T00:58:32;1.36;118.99
61641;HTU21D;62201;49.966;8.342;2023-12-07T01:00:58;1.22;118.99
61641;HTU21D;62201;49.966;8.342;2023-12-07T01:03:23;1.10;118.99
61641;HTU21D;62201;49.966;8.342;2023-12-07T01:05:48;1.22;118.99
61641;HTU21D;62201;49.966;8.342;2023-12-07T01:08:14;1.12;118.99
61641;HTU21D;62201;49.966;8.342;2023-12-07T01:10:39;1.13;118.99
61641;HTU21D;62201;49.966;8.342;2023-12-07T01:13:04;1.06;118.99
61641;HTU21D;62201;49.966;8.342;2023-12-07T01:15:30;0.76;118.99
61641;HTU21D;62201;49.966;8.342;2023-12-07T01:17:56;0.72;118.99
61641;HTU21D;62201;49.966;8.342;2023-12-07T01:20:21;0.65;118.99
61641;HTU21D;62201;49.966;8.342;2023-12-07T01:22:46;0.47;118.99
61641;HTU21D;62201;49.966;8.342;2023-12-07T01:25:12;0.38;118.99
61641;HTU21D;62201;49.966;8.342;2023-12-07T01:27:38;0.43;118.99
61641;HTU21D;62201;49.966;8.342;2023-12-07T01:30:04;0.32;118.99
61641;HTU21D;62201;49.966;8.342;2023-12-07T01:32:30;0.22;118.99
61641;HTU21D;62201;49.966;8.342;2023-12-07T01:34:55;0.22;118.99
61641;HTU21D;62201;49.966;8.342;2023-12-07T01:37:21;0.07;118.99
61641;HTU21D;62201;49.966;8.342;2023-12-07T01:39:46;0.04;118.99
61641;HTU21D;62201;49.966;8.342;2023-12-07T01:42:12;0.44;118.99
61641;HTU21D;62201;49.966;8.342;2023-12-07T01:44:38;0.35;118.99
61641;HTU21D;62201;49.966;8.342;2023-12-07T01:47:04;0.28;118.99
61641;HTU21D;62201;49.966;8.342;2023-12-07T01:49:31;0.23;118.99
61641;HTU21D;62201;49.966;8.342;2023-12-07T01:51:57;0.23;118.99
61641;HTU21D;62201;49.966;8.342;2023-12-07T01:54:23;-0.02;118.99
61641;HTU21D;62201;49.966;8.342;2023-12-07T01:56:51;-0.10;118.99
61641;HTU21D;62201;49.966;8.342;2023-12-07T01:59:17;0.04;118.99
61641;HTU21D;62201;49.966;8.342;2023-12-07T02:01:43;0.04;118.99
61641;HTU21D;62201;49.966;8.342;2023-12-07T02:04:09;0.24;118.99
61641;HTU21D;62201;49.966;8.342;2023-12-07T02:06:35;0.37;118.99
61641;HTU21D;62201;49.966;8.342;2023-12-07T02:09:00;0.35;118.99
61641;HTU21D;62201;49.966;8.342;2023-12-07T02:11:26;0.22;118.99
61641;HTU21D;62201;49.966;8.342;2023-12-07T02:13:52;0.17;118.99
61641;HTU21D;62201;49.966;8.342;2023-12-07T02:16:31;0.33;118.99
61641;HTU21D;62201;49.966;8.342;2023-12-07T02:22:14;0.27;118.99
61641;HTU21D;62201;49.966;8.342;2023-12-07T02:24:50;-0.15;118.99
61641;HTU21D;62201;49.966;8.342;2023-12-07T02:30:00;-0.28;118.99
61641;HTU21D;62201;49.966;8.342;2023-12-07T02:32:26;-0.19;118.99
61641;HTU21D;62201;49.966;8.342;2023-12-07T02:34:51;-0.28;118.99
61641;HTU21D;62201;49.966;8.342;2023-12-07T02:37:19;-0.10;118.99
61641;HTU21D;62201;49.966;8.342;2023-12-07T02:39:45;-0.13;118.99
61641;HTU21D;62201;49.966;8.342;2023-12-07T02:42:11;-0.28;118.99
61641;HTU21D;62201;49.966;8.342;2023-12-07T02:44:38;-0.27;118.99
61641;HTU21D;62201;49.966;8.342;2023-12-07T02:47:04;-0.06;118.99
61641;HTU21D;62201;49.966;8.342;2023-12-07T02:49:29;-0.24;118.99
61641;HTU21D;62201;49.966;8.342;2023-12-07T02:51:54;-0.34;118.99
61641;HTU21D;62201;49.966;8.342;2023-12-07T02:54:20;-0.23;118.99
61641;HTU21D;62201;49.966;8.342;2023-12-07T02:56:45;-0.47;118.99
61641;HTU21D;62201;49.966;8.342;2023-12-07T02:59:10;-0.62;118.99
61641;HTU21D;62201;49.966;8.342;2023-12-07T03:01:36;-0.22;118.99
61641;HTU21D;62201;49.966;8.342;2023-12-07T03:04:01;-0.41;118.99
61641;HTU21D;62201;49.966;8.342;2023-12-07T03:06:26;-0.52;118.99
61641;HTU21D;62201;49.966;8.342;2023-12-07T03:08:52;-0.43;118.99
61641;HTU21D;62201;49.966;8.342;2023-12-07T03:11:17;-0.44;118.99
61641;HTU21D;62201;49.966;8.342;2023-12-07T03:13:42;-0.43;118.99
61641;HTU21D;62201;49.966;8.342;2023-12-07T03:16:08;-0.31;118.99
61641;HTU21D;62201;49.966;8.342;2023-12-07T03:18:35;-0.50;118.99
61641;HTU21D;62201;49.966;8.342;2023-12-07T03:21:01;-0.58;118.99
61641;HTU21D;62201;49.966;8.342;2023-12-07T03:23:27;-0.55;118.99
61641;HTU21D;62201;49.966;8.342;2023-12-07T03:25:53;-0.58;118.99
61641;HTU21D;62201;49.966;8.342;2023-12-07T03:28:18;-0.56;118.99
61641;HTU21D;62201;49.966;8.342;2023-12-07T03:30:43;-0.72;118.99
61641;HTU21D;62201;49.966;8.342;2023-12-07T03:33:09;-0.58;118.99
61641;HTU21D;62201;49.966;8.342;2023-12-07T03:35:34;-0.62;118.99
61641;HTU21D;62201;49.966;8.342;2023-12-07T03:37:59;-0.65;118.99
61641;HTU21D;62201;49.966;8.342;2023-12-07T03:40:25;-0.45;118.99
61641;HTU21D;62201;49.966;8.342;2023-12-07T03:42:50;-0.29;118.99
61641;HTU21D;62201;49.966;8.342;2023-12-07T03:45:16;-0.15;118.99
61641;HTU21D;62201;49.966;8.342;2023-12-07T03:47:41;0.01;118.99
61641;HTU21D;62201;49.966;8.342;2023-12-07T03:50:07;-0.03;118.99
61641;HTU21D;62201;49.966;8.342;2023-12-07T03:52:32;-0.02;118.99
61641;HTU21D;62201;49.966;8.342;2023-12-07T03:54:57;-0.14;118.99
61641;HTU21D;62201;49.966;8.342;2023-12-07T03:57:23;-0.23;118.99
61641;HTU21D;62201;49.966;8.342;2023-12-07T03:59:48;-0.30;118.99
61641;HTU21D;62201;49.966;8.342;2023-12-07T04:02:14;-0.13;118.99
61641;HTU21D;62201;49.966;8.342;2023-12-07T04:04:39;-0.11;118.99
61641;HTU21D;62201;49.966;8.342;2023-12-07T04:07:05;-0.06;118.99
61641;HTU21D;62201;49.966;8.342;2023-12-07T04:09:30;0.04;118.99
61641;HTU21D;62201;49.966;8.342;2023-12-07T04:11:56;-0.01;118.99
61641;HTU21D;62201;49.966;8.342;2023-12-07T04:14:21;-0.00;118.99
61641;HTU21D;62201;49.966;8.342;2023-12-07T04:16:46;-0.21;118.99
61641;HTU21D;62201;49.966;8.342;2023-12-07T04:19:12;-0.26;118.99
61641;HTU21D;62201;49.966;8.342;2023-12-07T04:21:38;-0.38;118.99
61641;HTU21D;62201;49.966;8.342;2023-12-07T04:24:03;-0.37;118.99
61641;HTU21D;62201;49.966;8.342;2023-12-07T04:26:29;-0.43;118.99
61641;HTU21D;62201;49.966;8.342;2023-12-07T04:28:54;-0.45;118.99
61641;HTU21D;62201;49.966;8.342;2023-12-07T04:31:20;-0.54;118.99
61641;HTU21D;62201;49.966;8.342;2023-12-07T04:33:46;-0.52;118.99
61641;HTU21D;62201;49.966;8.342;2023-12-07T04:36:11;-0.58;118.99
61641;HTU21D;62201;49.966;8.342;2023-12-07T04:38:37;-0.75;118.99
61641;HTU21D;62201;49.966;8.342;2023-12-07T04:41:03;-0.88;118.99
61641;HTU21D;62201;49.966;8.342;2023-12-07T04:43:28;-0.87;118.99
61641;HTU21D;62201;49.966;8.342;2023-12-07T04:45:53;-0.99;118.99
61641;HTU21D;62201;49.966;8.342;2023-12-07T04:48:19;-1.03;118.99
61641;HTU21D;62201;49.966;8.342;2023-12-07T04:50:44;-1.02;118.99
61641;HTU21D;62201;49.966;8.342;2023-12-07T04:53:10;-0.90;118.99
61641;HTU21D;62201;49.966;8.342;2023-12-07T04:55:35;-1.01;118.99
61641;HTU21D;62201;49.966;8.342;2023-12-07T04:58:01;-1.03;118.99
61641;HTU21D;62201;49.966;8.342;2023-12-07T05:00:26;-0.99;118.99
61641;HTU21D;62201;49.966;8.342;2023-12-07T05:02:52;-0.86;118.99
61641;HTU21D;62201;49.966;8.342;2023-12-07T05:05:18;-0.74;118.99
61641;HTU21D;62201;49.966;8.342;2023-12-07T05:07:44;-0.84;118.99
61641;HTU21D;62201;49.966;8.342;2023-12-07T05:10:09;-0.99;118.99
61641;HTU21D;62201;49.966;8.342;2023-12-07T05:12:35;-1.08;118.99
61641;HTU21D;62201;49.966;8.342;2023-12-07T05:15:01;-0.94;118.99
61641;HTU21D;62201;49.966;8.342;2023-12-07T05:17:28;-0.72;118.99
61641;HTU21D;62201;49.966;8.342;2023-12-07T05:19:53;-0.84;118.99
61641;HTU21D;62201;49.966;8.342;2023-12-07T05:22:18;-0.56;118.99
61641;HTU21D;62201;49.966;8.342;2023-12-07T05:24:44;-0.59;118.99
61641;HTU21D;62201;49.966;8.342;2023-12-07T05:27:09;-0.54;118.99
61641;HTU21D;62201;49.966;8.342;2023-12-07T05:29:35;-0.67;118.99
61641;HTU21D;62201;49.966;8.342;2023-12-07T05:32:00;-0.55;118.99
61641;HTU21D;62201;49.966;8.342;2023-12-07T05:34:25;-0.56;118.99
61641;HTU21D;62201;49.966;8.342;2023-12-07T05:36:51;-0.51;118.99
61641;HTU21D;62201;49.966;8.342;2023-12-07T05:39:16;-0.47;118.99
61641;HTU21D;62201;49.966;8.342;2023-12-07T05:41:42;-0.39;118.99
61641;HTU21D;62201;49.966;8.342;2023-12-07T05:44:08;-0.40;118.99
61641;HTU21D;62201;49.966;8.342;2023-12-07T05:46:35;-0.28;118.99
61641;HTU21D;62201;49.966;8.342;2023-12-07T05:49:00;-0.54;118.99
61641;HTU21D;62201;49.966;8.342;2023-12-07T05:51:26;-0.46;118.99
61641;HTU21D;62201;49.966;8.342;2023-12-07T05:53:51;-0.54;118.99
61641;HTU21D;62201;49.966;8.342;2023-12-07T05:56:18;-0.65;118.99
61641;HTU21D;62201;49.966;8.342;2023-12-07T05:58:45;-0.74;118.99
61641;HTU21D;62201;49.966;8.342;2023-12-07T06:01:10;-0.85;118.99
61641;HTU21D;62201;49.966;8.342;2023-12-07T06:03:36;-0.67;118.99
61641;HTU21D;62201;49.966;8.342;2023-12-07T06:06:01;-0.75;118.99
61641;HTU21D;62201;49.966;8.342;2023-12-07T06:08:26;-0.80;118.99
61641;HTU21D;62201;49.966;8.342;2023-12-07T06:10:52;-0.67;118.99
61641;HTU21D;62201;49.966;8.342;2023-12-07T06:13:17;-0.70;118.99
61641;HTU21D;62201;49.966;8.342;2023-12-07T06:15:43;-0.73;118.99
61641;HTU21D;62201;49.966;8.342;2023-12-07T06:18:08;-0.88;118.99
61641;HTU21D;62201;49.966;8.342;2023-12-07T06:20:34;-0.88;118.99
61641;HTU21D;62201;49.966;8.342;2023-12-07T06:23:00;-0.86;118.99
61641;HTU21D;62201;49.966;8.342;2023-12-07T06:25:25;-1.08;118.99
61641;HTU21D;62201;49.966;8.342;2023-12-07T06:27:51;-1.16;118.99
61641;HTU21D;62201;49.966;8.342;2023-12-07T06:30:16;-1.26;118.99
61641;HTU21D;62201;49.966;8.342;2023-12-07T06:32:43;-1.02;118.99
61641;HTU21D;62201;49.966;8.342;2023-12-07T06:35:12;-0.99;118.99
61641;HTU21D;62201;49.966;8.342;2023-12-07T06:37:41;-0.74;118.99
61641;HTU21D;62201;49.966;8.342;2023-12-07T06:40:09;-1.08;118.99
61641;HTU21D;62201;49.966;8.342;2023-12-07T06:42:35;-1.02;118.99
61641;HTU21D;62201;49.966;8.342;2023-12-07T06:45:01;-1.08;118.99
61641;HTU21D;62201;49.966;8.342;2023-12-07T06:47:27;-1.34;118.99
61641;HTU21D;62201;49.966;8.342;2023-12-07T06:49:52;-1.34;118.99
61641;HTU21D;62201;49.966;8.342;2023-12-07T06:52:18;-1.43;118.99
61641;HTU21D;62201;49.966;8.342;2023-12-07T06:54:43;-1.33;118.99
61641;HTU21D;62201;49.966;8.342;2023-12-07T06:57:09;-1.48;118.99
61641;HTU21D;62201;49.966;8.342;2023-12-07T06:59:34;-1.48;118.99
61641;HTU21D;62201;49.966;8.342;2023-12-07T07:02:00;-1.34;118.99
61641;HTU21D;62201;49.966;8.342;2023-12-07T07:04:25;-1.23;118.99
61641;HTU21D;62201;49.966;8.342;2023-12-07T07:06:51;-1.21;118.99
61641;HTU21D;62201;49.966;8.342;2023-12-07T07:09:17;-1.19;118.99
61641;HTU21D;62201;49.966;8.342;2023-12-07T07:11:49;-1.30;118.99
61641;HTU21D;62201;49.966;8.342;2023-12-07T07:14:15;-1.25;118.99
61641;HTU21D;62201;49.966;8.342;2023-12-07T07:16:41;-1.19;118.99
61641;HTU21D;62201;49.966;8.342;2023-12-07T07:19:06;-1.02;118.99
61641;HTU21D;62201;49.966;8.342;2023-12-07T07:21:31;-0.91;118.99
61641;HTU21D;62201;49.966;8.342;2023-12-07T07:23:57;-0.86;118.99
61641;HTU21D;62201;49.966;8.342;2023-12-07T07:26:23;-0.71;118.99
61641;HTU21D;62201;49.966;8.342;2023-12-07T07:28:52;-0.67;118.99
61641;HTU21D;62201;49.966;8.342;2023-12-07T07:31:18;-0.67;118.99
61641;HTU21D;62201;49.966;8.342;2023-12-07T07:33:44;-0.71;118.99
61641;HTU21D;62201;49.966;8.342;2023-12-07T07:36:12;-0.65;118.99
61641;HTU21D;62201;49.966;8.342;2023-12-07T07:38:38;-0.69;118.99
61641;HTU21D;62201;49.966;8.342;2023-12-07T07:41:03;-0.77;118.99
61641;HTU21D;62201;49.966;8.342;2023-12-07T07:43:29;-0.70;118.99
61641;HTU21D;62201;49.966;8.342;2023-12-07T07:45:54;-0.54;118.99
61641;HTU21D;62201;49.966;8.342;2023-12-07T07:48:20;-0.46;118.99
61641;HTU21D;62201;49.966;8.342;2023-12-07T07:50:45;-0.52;118.99
61641;HTU21D;62201;49.966;8.342;2023-12-07T07:53:10;-0.44;118.99
61641;HTU21D;62201;49.966;8.342;2023-12-07T07:55:36;-0.43;118.99
61641;HTU21D;62201;49.966;8.342;2023-12-07T07:58:01;-0.61;118.99
61641;HTU21D;62201;49.966;8.342;2023-12-07T08:00:26;-0.69;118.99
61641;HTU21D;62201;49.966;8.342;2023-12-07T08:02:53;-0.66;118.99
61641;HTU21D;62201;49.966;8.342;2023-12-07T08:05:18;-0.60;118.99
61641;HTU21D;62201;49.966;8.342;2023-12-07T08:07:44;-0.76;118.99
61641;HTU21D;62201;49.966;8.342;2023-12-07T08:10:09;-0.82;118.99
61641;HTU21D;62201;49.966;8.342;2023-12-07T08:12:35;-0.93;118.99
61641;HTU21D;62201;49.966;8.342;2023-12-07T08:15:00;-0.83;118.99
61641;HTU21D;62201;49.966;8.342;2023-12-07T08:17:26;-0.86;118.99
61641;HTU21D;62201;49.966;8.342;2023-12-07T08:19:52;-0.76;118.99
61641;HTU21D;62201;49.966;8.342;2023-12-07T08:22:17;-0.91;118.99
61641;HTU21D;62201;49.966;8.342;2023-12-07T08:24:43;-0.81;118.99
61641;HTU21D;62201;49.966;8.342;2023-12-07T08:27:08;-0.64;118.99
61641;HTU21D;62201;49.966;8.342;2023-12-07T08:29:34;-0.58;118.99
61641;HTU21D;62201;49.966;8.342;2023-12-07T08:32:00;-0.32;118.99
61641;HTU21D;62201;49.966;8.342;2023-12-07T08:34:25;-0.34;118.99
61641;HTU21D;62201;49.966;8.342;2023-12-07T08:36:51;-0.38;118.99
61641;HTU21D;62201;49.966;8.342;2023-12-07T08:39:16;-0.19;118.99
61641;HTU21D;62201;49.966;8.342;2023-12-07T08:41:42;-0.27;118.99
61641;HTU21D;62201;49.966;8.342;2023-12-07T08:44:07;-0.19;118.99
61641;HTU21D;62201;49.966;8.342;2023-12-07T08:46:33;0.09;118.99
61641;HTU21D;62201;49.966;8.342;2023-12-07T08:48:58;0.02;118.99
61641;HTU21D;62201;49.966;8.342;2023-12-07T08:51:24;0.08;118.99
61641;HTU21D;62201;49.966;8.342;2023-12-07T08:53:50;0.10;118.99
61641;HTU21D;62201;49.966;8.342;2023-12-07T08:56:17;0.15;118.99
61641;HTU21D;62201;49.966;8.342;2023-12-07T08:58:42;0.19;118.99
61641;HTU21D;62201;49.966;8.342;2023-12-07T09:01:09;0.21;118.99
61641;HTU21D;62201;49.966;8.342;2023-12-07T09:03:34;0.23;118.99
61641;HTU21D;62201;49.966;8.342;2023-12-07T09:06:00;0.17;118.99
61641;HTU21D;62201;49.966;8.342;2023-12-07T09:08:26;0.34;118.99
61641;HTU21D;62201;49.966;8.342;2023-12-07T09:10:51;0.32;118.99
61641;HTU21D;62201;49.966;8.342;2023-12-07T09:13:18;0.30;118.99
61641;HTU21D;62201;49.966;8.342;2023-12-07T09:15:43;0.18;118.99
61641;HTU21D;62201;49.966;8.342;2023-12-07T09:18:09;0.45;118.99
61641;HTU21D;62201;49.966;8.342;2023-12-07T09:20:36;0.46;118.99
61641;HTU21D;62201;49.966;8.342;2023-12-07T09:23:01;0.17;118.99
61641;HTU21D;62201;49.966;8.342;2023-12-07T09:25:28;0.09;118.99
61641;HTU21D;62201;49.966;8.342;2023-12-07T09:27:55;0.20;118.99
61641;HTU21D;62201;49.966;8.342;2023-12-07T09:30:21;0.23;118.99
61641;HTU21D;62201;49.966;8.342;2023-12-07T09:32:46;0.59;118.99
61641;HTU21D;62201;49.966;8.342;2023-12-07T09:35:12;0.62;118.99
61641;HTU21D;62201;49.966;8.342;2023-12-07T09:37:48;0.97;118.99
61641;HTU21D;62201;49.966;8.342;2023-12-07T09:40:23;0.74;118.99
61641;HTU21D;62201;49.966;8.342;2023-12-07T09:42:50;0.90;118.99
61641;HTU21D;62201;49.966;8.342;2023-12-07T09:45:17;1.07;118.99
61641;HTU21D;62201;49.966;8.342;2023-12-07T09:47:52;0.86;118.99
61641;HTU21D;62201;49.966;8.342;2023-12-07T09:50:22;0.92;118.99
61641;HTU21D;62201;49.966;8.342;2023-12-07T09:52:48;0.67;118.99
61641;HTU21D;62201;49.966;8.342;2023-12-07T09:55:19;0.87;118.99
61641;HTU21D;62201;49.966;8.342;2023-12-07T09:57:45;0.90;118.99
61641;HTU21D;62201;49.966;8.342;2023-12-07T10:00:12;1.08;118.99
61641;HTU21D;62201;49.966;8.342;2023-12-07T10:02:40;0.59;118.99
61641;HTU21D;62201;49.966;8.342;2023-12-07T10:05:08;0.67;118.99
61641;HTU21D;62201;49.966;8.342;2023-12-07T10:07:40;0.81;118.99
61641;HTU21D;62201;49.966;8.342;2023-12-07T10:10:06;0.65;118.99
61641;HTU21D;62201;49.966;8.342;2023-12-07T10:12:32;0.89;118.99
61641;HTU21D;62201;49.966;8.342;2023-12-07T10:15:21;0.92;118.99
61641;HTU21D;62201;49.966;8.342;2023-12-07T10:17:49;0.78;118.99
61641;HTU21D;62201;49.966;8.342;2023-12-07T10:20:22;0.83;118.99
61641;HTU21D;62201;49.966;8.342;2023-12-07T10:22:49;0.82;118.99
61641;HTU21D;62201;49.966;8.342;2023-12-07T10:25:26;0.81;118.99
61641;HTU21D;62201;49.966;8.342;2023-12-07T10:27:51;0.62;118.99
61641;HTU21D;62201;49.966;8.342;2023-12-07T10:30:16;0.71;118.99
61641;HTU21D;62201;49.966;8.342;2023-12-07T10:32:46;0.74;118.99
61641;HTU21D;62201;49.966;8.342;2023-12-07T10:35:11;0.81;118.99
61641;HTU21D;62201;49.966;8.342;2023-12-07T10:37:37;0.86;118.99
61641;HTU21D;62201;49.966;8.342;2023-12-07T10:40:02;0.91;118.99
61641;HTU21D;62201;49.966;8.342;2023-12-07T10:42:32;0.77;118.99
61641;HTU21D;62201;49.966;8.342;2023-12-07T10:45:02;0.75;118.99
61641;HTU21D;62201;49.966;8.342;2023-12-07T10:47:28;0.64;118.99
61641;HTU21D;62201;49.966;8.342;2023-12-07T10:49:57;0.80;118.99
61641;HTU21D;62201;49.966;8.342;2023-12-07T10:52:27;0.91;118.99
61641;HTU21D;62201;49.966;8.342;2023-12-07T10:55:17;0.72;118.99
61641;HTU21D;62201;49.966;8.342;2023-12-07T10:57:44;0.77;118.99
61641;HTU21D;62201;49.966;8.342;2023-12-07T11:00:11;1.11;118.99
61641;HTU21D;62201;49.966;8.342;2023-12-07T11:02:37;1.19;118.99
61641;HTU21D;62201;49.966;8.342;2023-12-07T11:05:04;1.09;118.99
61641;HTU21D;62201;49.966;8.342;2023-12-07T11:07:45;1.26;118.99
61641;HTU21D;62201;49.966;8.342;2023-12-07T11:10:21;1.13;118.99
61641;HTU21D;62201;49.966;8.342;2023-12-07T11:13:05;1.26;118.99
61641;HTU21D;62201;49.966;8.342;2023-12-07T11:15:34;1.23;118.99
61641;HTU21D;62201;49.966;8.342;2023-12-07T11:18:02;1.13;118.99
61641;HTU21D;62201;49.966;8.342;2023-12-07T11:20:40;1.08;118.99
61641;HTU21D;62201;49.966;8.342;2023-12-07T11:23:18;1.27;118.99
61641;HTU21D;62201;49.966;8.342;2023-12-07T11:25:45;1.21;118.99
61641;HTU21D;62201;49.966;8.342;2023-12-07T11:28:11;1.24;118.99
61641;HTU21D;62201;49.966;8.342;2023-12-07T11:30:37;1.29;118.99
61641;HTU21D;62201;49.966;8.342;2023-12-07T11:33:04;1.35;118.99
61641;HTU21D;62201;49.966;8.342;2023-12-07T11:35:31;1.17;118.99
61641;HTU21D;62201;49.966;8.342;2023-12-07T11:38:07;1.46;118.99
61641;HTU21D;62201;49.966;8.342;2023-12-07T11:40:37;1.37;118.99
61641;HTU21D;62201;49.966;8.342;2023-12-07T11:43:05;1.45;118.99
61641;HTU21D;62201;49.966;8.342;2023-12-07T11:45:42;1.52;118.99
61641;HTU21D;62201;49.966;8.342;2023-12-07T11:48:13;1.58;118.99
61641;HTU21D;62201;49.966;8.342;2023-12-07T11:53:28;1.66;118.99
61641;HTU21D;62201;49.966;8.342;2023-12-07T11:55:55;1.58;118.99
61641;HTU21D;62201;49.966;8.342;2023-12-07T11:58:21;1.56;118.99
61641;HTU21D;62201;49.966;8.342;2023-12-07T12:00:47;1.63;118.99
61641;HTU21D;62201;49.966;8.342;2023-12-07T12:03:13;1.23;118.99
61641;HTU21D;62201;49.966;8.342;2023-12-07T12:05:39;1.27;118.99
61641;HTU21D;62201;49.966;8.342;2023-12-07T12:08:06;1.21;118.99
61641;HTU21D;62201;49.966;8.342;2023-12-07T12:10:31;1.35;118.99
61641;HTU21D;62201;49.966;8.342;2023-12-07T12:12:57;1.45;118.99
61641;HTU21D;62201;49.966;8.342;2023-12-07T12:15:26;1.43;118.99
61641;HTU21D;62201;49.966;8.342;2023-12-07T12:17:51;1.47;118.99
61641;HTU21D;62201;49.966;8.342;2023-12-07T12:20:17;1.33;118.99
61641;HTU21D;62201;49.966;8.342;2023-12-07T12:22:45;1.60;118.99
61641;HTU21D;62201;49.966;8.342;2023-12-07T12:25:11;1.54;118.99
61641;HTU21D;62201;49.966;8.342;2023-12-07T12:27:37;1.40;118.99
61641;HTU21D;62201;49.966;8.342;2023-12-07T12:30:03;1.57;118.99
61641;HTU21D;62201;49.966;8.342;2023-12-07T12:32:45;1.79;118.99
61641;HTU21D;62201;49.966;8.342;2023-12-07T12:35:11;1.65;118.99
61641;HTU21D;62201;49.966;8.342;2023-12-07T12:37:38;1.54;118.99
61641;HTU21D;62201;49.966;8.342;2023-12-07T12:40:08;1.57;118.99
61641;HTU21D;62201;49.966;8.342;2023-12-07T12:42:34;1.56;118.99
61641;HTU21D;62201;49.966;8.342;2023-12-07T12:45:05;1.56;118.99
61641;HTU21D;62201;49.966;8.342;2023-12-07T12:47:33;1.48;118.99
61641;HTU21D;62201;49.966;8.342;2023-12-07T12:49:59;1.50;118.99
61641;HTU21D;62201;49.966;8.342;2023-12-07T12:52:25;1.25;118.99
61641;HTU21D;62201;49.966;8.342;2023-12-07T12:54:55;1.23;118.99
61641;HTU21D;62201;49.966;8.342;2023-12-07T12:57:20;1.34;118.99
61641;HTU21D;62201;49.966;8.342;2023-12-07T12:59:47;1.36;118.99
61641;HTU21D;62201;49.966;8.342;2023-12-07T13:02:13;1.41;118.99
61641;HTU21D;62201;49.966;8.342;2023-12-07T13:04:39;1.34;118.99
61641;HTU21D;62201;49.966;8.342;2023-12-07T13:07:05;1.38;118.99
61641;HTU21D;62201;49.966;8.342;2023-12-07T13:09:30;1.53;118.99
61641;HTU21D;62201;49.966;8.342;2023-12-07T13:11:57;1.69;118.99
61641;HTU21D;62201;49.966;8.342;2023-12-07T13:14:22;1.51;118.99
61641;HTU21D;62201;49.966;8.342;2023-12-07T13:16:48;1.55;118.99
61641;HTU21D;62201;49.966;8.342;2023-12-07T13:19:13;1.71;118.99
61641;HTU21D;62201;49.966;8.342;2023-12-07T13:21:39;1.75;118.99
61641;HTU21D;62201;49.966;8.342;2023-12-07T13:24:04;1.56;118.99
61641;HTU21D;62201;49.966;8.342;2023-12-07T13:26:31;1.69;118.99
61641;HTU21D;62201;49.966;8.342;2023-12-07T13:28:56;1.78;118.99
61641;HTU21D;62201;49.966;8.342;2023-12-07T13:31:22;1.77;118.99
61641;HTU21D;62201;49.966;8.342;2023-12-07T13:33:48;1.56;118.99
61641;HTU21D;62201;49.966;8.342;2023-12-07T13:36:14;1.43;118.99
61641;HTU21D;62201;49.966;8.342;2023-12-07T13:38:43;1.40;118.99
61641;HTU21D;62201;49.966;8.342;2023-12-07T13:41:08;1.65;118.99
61641;HTU21D;62201;49.966;8.342;2023-12-07T13:43:34;1.82;118.99
61641;HTU21D;62201;49.966;8.342;2023-12-07T13:45:59;1.91;118.99
61641;HTU21D;62201;49.966;8.342;2023-12-07T13:48:26;1.68;118.99
61641;HTU21D;62201;49.966;8.342;2023-12-07T13:50:52;1.69;118.99
61641;HTU21D;62201;49.966;8.342;2023-12-07T13:53:20;1.81;118.99
61641;HTU21D;62201;49.966;8.342;2023-12-07T13:55:51;1.79;118.99
61641;HTU21D;62201;49.966;8.342;2023-12-07T13:58:17;1.77;118.99
61641;HTU21D;62201;49.966;8.342;2023-12-07T14:00:42;1.85;118.99
61641;HTU21D;62201;49.966;8.342;2023-12-07T14:03:10;1.78;118.99
61641;HTU21D;62201;49.966;8.342;2023-12-07T14:05:37;1.85;118.99
61641;HTU21D;62201;49.966;8.342;2023-12-07T14:08:03;1.91;118.99
61641;HTU21D;62201;49.966;8.342;2023-12-07T14:10:28;1.84;118.99
61641;HTU21D;62201;49.966;8.342;2023-12-07T14:12:53;1.86;118.99
61641;HTU21D;62201;49.966;8.342;2023-12-07T14:15:19;2.00;118.99
61641;HTU21D;62201;49.966;8.342;2023-12-07T14:17:44;1.75;118.99
61641;HTU21D;62201;49.966;8.342;2023-12-07T14:20:10;1.68;118.99
61641;HTU21D;62201;49.966;8.342;2023-12-07T14:22:37;1.81;118.99
61641;HTU21D;62201;49.966;8.342;2023-12-07T14:25:04;1.83;118.99
61641;HTU21D;62201;49.966;8.342;2023-12-07T14:27:29;1.81;118.99
61641;HTU21D;62201;49.966;8.342;2023-12-07T14:29:55;1.76;118.99
61641;HTU21D;62201;49.966;8.342;2023-12-07T14:32:21;1.68;118.99
61641;HTU21D;62201;49.966;8.342;2023-12-07T14:34:46;1.57;118.99
61641;HTU21D;62201;49.966;8.342;2023-12-07T14:37:12;1.71;118.99
61641;HTU21D;62201;49.966;8.342;2023-12-07T14:39:39;1.64;118.99
61641;HTU21D;62201;49.966;8.342;2023-12-07T14:42:05;1.56;118.99
61641;HTU21D;62201;49.966;8.342;2023-12-07T14:44:30;1.61;118.99
61641;HTU21D;62201;49.966;8.342;2023-12-07T14:46:56;1.66;118.99
61641;HTU21D;62201;49.966;8.342;2023-12-07T14:49:22;1.51;118.99
61641;HTU21D;62201;49.966;8.342;2023-12-07T14:51:48;1.52;118.99
61641;HTU21D;62201;49.966;8.342;2023-12-07T14:54:14;1.47;118.99
61641;HTU21D;62201;49.966;8.342;2023-12-07T14:56:40;1.51;118.99
61641;HTU21D;62201;49.966;8.342;2023-12-07T14:59:06;1.60;118.99
61641;HTU21D;62201;49.966;8.342;2023-12-07T15:01:33;1.68;118.99
61641;HTU21D;62201;49.966;8.342;2023-12-07T15:03:58;1.51;118.99
61641;HTU21D;62201;49.966;8.342;2023-12-07T15:06:25;1.51;118.99
61641;HTU21D;62201;49.966;8.342;2023-12-07T15:08:51;1.58;118.99
61641;HTU21D;62201;49.966;8.342;2023-12-07T15:11:16;1.56;118.99
61641;HTU21D;62201;49.966;8.342;2023-12-07T15:13:42;1.57;118.99